createdAt,value
2022-08-18T00:00:02.037Z,0
2022-08-18T00:01:04.928Z,0
2022-08-18T00:02:05.387Z,0
2022-08-18T00:04:41.926Z,0
2022-08-18T00:05:12.487Z,0
2022-08-18T00:06:06.873Z,0
2022-08-18T00:07:06.776Z,0
2022-08-18T00:08:07.987Z,0
2022-08-18T00:09:09.652Z,0
2022-08-18T00:10:17.909Z,0
2022-08-18T00:11:09.174Z,0
2022-08-18T00:12:09.377Z,0
2022-08-18T00:13:15.646Z,0
2022-08-18T00:14:11.145Z,0
2022-08-18T00:15:10.486Z,0
2022-08-18T00:16:11.688Z,0
2022-08-18T00:17:12.194Z,0
2022-08-18T00:18:12.395Z,0
2022-08-18T00:19:20.350Z,0
2022-08-18T00:20:13.482Z,0
2022-08-18T00:21:14.657Z,0
2022-08-18T00:22:15.051Z,0
2022-08-18T00:23:14.456Z,0
2022-08-18T00:24:14.067Z,0
2022-08-18T00:25:15.281Z,0
2022-08-18T00:26:15.566Z,0
2022-08-18T00:27:19.044Z,0
2022-08-18T00:28:16.542Z,0
2022-08-18T00:29:17.040Z,0
2022-08-18T00:30:17.244Z,0
2022-08-18T00:31:17.439Z,0
2022-08-18T00:32:17.764Z,0
2022-08-18T00:33:17.469Z,0
2022-08-18T00:34:18.669Z,0
2022-08-18T00:35:18.900Z,0
2022-08-18T00:36:19.390Z,0
2022-08-18T00:37:19.300Z,0
2022-08-18T00:38:36.428Z,0
2022-08-18T00:39:20.653Z,0
2022-08-18T00:40:21.032Z,0
2022-08-18T00:41:21.561Z,0
2022-08-18T00:42:37.832Z,0
2022-08-18T00:43:26.138Z,0
2022-08-18T00:44:26.351Z,0
2022-08-18T00:45:26.761Z,0
2022-08-18T00:46:27.458Z,0
2022-08-18T00:47:54.264Z,0
2022-08-18T00:48:34.858Z,0
2022-08-18T00:49:29.281Z,0
2022-08-18T00:50:31.564Z,0
2022-08-18T00:51:30.804Z,0
2022-08-18T00:52:31.431Z,0
2022-08-18T00:53:32.450Z,0
2022-08-18T00:54:32.651Z,0
2022-08-18T00:55:32.791Z,0
2022-08-18T00:56:33.430Z,0
2022-08-18T00:57:34.629Z,0
2022-08-18T00:58:35.317Z,0
2022-08-18T00:59:35.047Z,0
2022-08-18T01:00:35.433Z,0
2022-08-18T01:01:35.807Z,0
2022-08-18T01:02:36.407Z,0
2022-08-18T01:03:41.602Z,0
2022-08-18T01:04:37.545Z,0
2022-08-18T01:05:38.416Z,0
2022-08-18T01:06:38.036Z,0
2022-08-18T01:07:39.237Z,0
2022-08-18T01:08:46.425Z,0
2022-08-18T01:09:40.047Z,0
2022-08-18T01:10:40.405Z,0
2022-08-18T01:11:41.318Z,0
2022-08-18T01:13:02.258Z,0
2022-08-18T01:13:50.562Z,0
2022-08-18T01:14:50.168Z,0
2022-08-18T01:15:51.367Z,0
2022-08-18T01:17:08.633Z,0
2022-08-18T01:17:52.255Z,0
2022-08-18T01:18:52.274Z,0
2022-08-18T01:19:53.197Z,0
2022-08-18T01:20:54.121Z,0
2022-08-18T01:21:54.313Z,0
2022-08-18T01:22:54.231Z,0
2022-08-18T01:23:55.547Z,0
2022-08-18T01:24:55.764Z,0
2022-08-18T01:25:56.973Z,0
2022-08-18T01:27:01.499Z,0
2022-08-18T01:27:59.770Z,0
2022-08-18T01:28:57.824Z,0
2022-08-18T01:29:59.912Z,0
2022-08-18T01:30:59.112Z,0
2022-08-18T01:32:11.109Z,0
2022-08-18T01:33:00.334Z,0
2022-08-18T01:34:00.541Z,0
2022-08-18T01:35:01.459Z,0
2022-08-18T01:36:02.676Z,0
2022-08-18T01:37:04.068Z,0
2022-08-18T01:38:03.805Z,0
2022-08-18T01:39:03.751Z,0
2022-08-18T01:41:43.020Z,0
2022-08-18T01:43:00.515Z,0
2022-08-18T01:44:01.558Z,0
2022-08-18T01:45:01.855Z,0
2022-08-18T01:46:02.313Z,0
2022-08-18T01:47:02.811Z,0
2022-08-18T01:48:04.968Z,0
2022-08-18T01:49:04.023Z,0
2022-08-18T01:50:04.952Z,0
2022-08-18T01:51:04.848Z,0
2022-08-18T01:52:05.196Z,0
2022-08-18T01:53:06.481Z,0
2022-08-18T01:54:06.976Z,0
2022-08-18T01:55:06.987Z,0
2022-08-18T01:56:06.849Z,0
2022-08-18T01:57:08.074Z,0
2022-08-18T01:58:09.299Z,0
2022-08-18T01:59:12.152Z,0
2022-08-18T02:00:10.393Z,0
2022-08-18T02:01:11.276Z,0
2022-08-18T02:02:14.177Z,0
2022-08-18T02:03:18.758Z,0
2022-08-18T02:04:47.914Z,0
2022-08-18T02:05:36.636Z,0
2022-08-18T02:06:58.001Z,0
2022-08-18T02:07:53.917Z,0
2022-08-18T02:08:42.126Z,0
2022-08-18T02:09:40.767Z,0
2022-08-18T02:10:38.099Z,0
2022-08-18T02:11:39.317Z,0
2022-08-18T02:12:39.606Z,0
2022-08-18T02:13:40.112Z,0
2022-08-18T02:14:43.633Z,0
2022-08-18T02:15:41.556Z,0
2022-08-18T02:16:41.979Z,0
2022-08-18T02:17:41.893Z,0
2022-08-18T02:19:04.552Z,0
2022-08-18T02:19:43.167Z,0
2022-08-18T02:20:44.864Z,0
2022-08-18T02:21:45.367Z,0
2022-08-18T02:22:44.985Z,0
2022-08-18T02:23:54.384Z,0
2022-08-18T02:24:46.574Z,0
2022-08-18T02:25:46.566Z,0
2022-08-18T02:26:47.212Z,0
2022-08-18T02:27:49.983Z,0
2022-08-18T02:28:51.141Z,0
2022-08-18T02:29:50.056Z,0
2022-08-18T02:30:50.951Z,0
2022-08-18T02:31:51.878Z,0
2022-08-18T02:32:53.073Z,0
2022-08-18T02:34:03.469Z,0
2022-08-18T02:34:53.986Z,0
2022-08-18T02:35:56.264Z,0
2022-08-18T02:36:55.459Z,0
2022-08-18T02:38:09.326Z,0
2022-08-18T02:39:10.911Z,0
2022-08-18T02:39:57.843Z,0
2022-08-18T02:40:58.837Z,0
2022-08-18T02:42:00.049Z,0
2022-08-18T02:43:00.261Z,0
2022-08-18T02:44:00.756Z,0
2022-08-18T02:45:00.957Z,0
2022-08-18T02:46:01.681Z,0
2022-08-18T02:47:01.882Z,0
2022-08-18T02:48:02.847Z,0
2022-08-18T02:49:03.340Z,0
2022-08-18T02:52:08.582Z,0
2022-08-18T02:53:06.387Z,0
2022-08-18T02:54:10.828Z,0
2022-08-18T02:55:06.756Z,0
2022-08-18T02:56:07.502Z,0
2022-08-18T02:57:08.424Z,0
2022-08-18T02:58:08.296Z,0
2022-08-18T02:59:09.216Z,0
2022-08-18T03:00:10.655Z,0
2022-08-18T03:01:11.542Z,0
2022-08-18T03:03:12.369Z,0
2022-08-18T03:04:13.299Z,0
2022-08-18T03:05:19.941Z,0
2022-08-18T03:06:15.169Z,0
2022-08-18T03:12:18.032Z,0
2022-08-18T03:14:22.525Z,0
2022-08-18T03:15:19.467Z,0
2022-08-18T03:18:23.996Z,0
2022-08-18T03:19:24.479Z,0
2022-08-18T03:20:35.865Z,0
2022-08-18T03:21:26.470Z,0
2022-08-18T03:22:46.345Z,0
2022-08-18T03:23:35.624Z,0
2022-08-18T03:24:34.746Z,0
2022-08-18T03:25:28.043Z,0
2022-08-18T03:26:28.235Z,0
2022-08-18T03:27:29.161Z,0
2022-08-18T03:28:29.649Z,0
2022-08-18T03:29:34.719Z,0
2022-08-18T03:30:30.940Z,0
2022-08-18T03:31:33.237Z,0
2022-08-18T03:32:32.161Z,0
2022-08-18T03:33:32.264Z,0
2022-08-18T03:34:32.463Z,0
2022-08-18T03:35:32.676Z,0
2022-08-18T03:36:33.322Z,0
2022-08-18T03:37:33.523Z,0
2022-08-18T03:38:34.021Z,0
2022-08-18T03:39:34.932Z,0
2022-08-18T03:40:34.665Z,0
2022-08-18T03:42:15.521Z,0
2022-08-18T03:42:36.136Z,0
2022-08-18T03:44:06.585Z,0
2022-08-18T03:44:37.805Z,0
2022-08-18T03:45:37.999Z,0
2022-08-18T03:46:38.926Z,0
2022-08-18T03:47:38.844Z,0
2022-08-18T03:48:38.769Z,0
2022-08-18T03:49:39.821Z,0
2022-08-18T03:50:40.457Z,0
2022-08-18T03:51:41.647Z,0
2022-08-18T03:52:47.136Z,0
2022-08-18T03:53:42.354Z,0
2022-08-18T03:54:42.278Z,0
2022-08-18T03:55:42.192Z,0
2022-08-18T03:56:42.524Z,0
2022-08-18T03:57:50.562Z,0
2022-08-18T03:58:44.528Z,0
2022-08-18T03:59:45.278Z,0
2022-08-18T04:00:45.775Z,0
2022-08-18T04:01:46.575Z,0
2022-08-18T04:02:46.815Z,0
2022-08-18T04:03:46.721Z,0
2022-08-18T04:04:56.825Z,0
2022-08-18T04:05:48.069Z,0
2022-08-18T04:06:48.267Z,0
2022-08-18T04:07:50.132Z,0
2022-08-18T04:08:49.244Z,0
2022-08-18T04:09:50.227Z,0
2022-08-18T04:10:51.424Z,0
2022-08-18T04:11:55.269Z,0
2022-08-18T04:12:52.770Z,0
2022-08-18T04:13:53.273Z,0
2022-08-18T04:14:54.464Z,0
2022-08-18T04:15:53.970Z,0
2022-08-18T04:16:54.291Z,0
2022-08-18T04:18:21.444Z,0
2022-08-18T04:18:55.344Z,0
2022-08-18T04:19:56.690Z,0
2022-08-18T04:21:16.744Z,0
2022-08-18T04:22:01.943Z,0
2022-08-18T04:22:58.860Z,0
2022-08-18T04:24:00.747Z,0
2022-08-18T04:25:03.541Z,0
2022-08-18T04:26:00.462Z,0
2022-08-18T04:54:18.553Z,11.25
2022-08-18T04:55:18.459Z,11.25
2022-08-18T04:56:20.745Z,11.25
2022-08-18T04:57:20.082Z,11.25
2022-08-18T04:58:19.985Z,11.25
2022-08-18T04:59:20.908Z,11.25
2022-08-18T05:00:21.320Z,11.25
2022-08-18T05:01:22.235Z,5.63
2022-08-18T05:02:25.744Z,5.63
2022-08-18T05:03:22.646Z,5.63
2022-08-18T05:04:24.143Z,5.63
2022-08-18T05:05:24.068Z,11.25
2022-08-18T05:06:25.892Z,11.25
2022-08-18T05:07:25.833Z,11.25
2022-08-18T05:08:25.986Z,11.25
2022-08-18T05:09:41.253Z,5.63
2022-08-18T05:10:29.269Z,5.63
2022-08-18T05:11:30.487Z,5.63
2022-08-18T05:12:37.500Z,5.63
2022-08-18T05:13:31.716Z,5.63
2022-08-18T05:14:31.917Z,5.63
2022-08-18T05:15:47.140Z,5.63
2022-08-18T05:16:54.288Z,5.63
2022-08-18T05:17:36.175Z,5.63
2022-08-18T05:18:37.520Z,5.63
2022-08-18T05:19:38.584Z,5.63
2022-08-18T05:20:37.298Z,5.63
2022-08-18T05:21:38.866Z,5.63
2022-08-18T05:22:47.767Z,5.63
2022-08-18T05:24:48.514Z,5.63
2022-08-18T05:25:39.010Z,5.63
2022-08-18T05:26:38.905Z,5.63
2022-08-18T05:27:40.428Z,5.63
2022-08-18T05:28:40.048Z,11.25
2022-08-18T05:29:51.715Z,11.25
2022-08-18T05:30:41.599Z,11.25
2022-08-18T05:31:42.547Z,11.25
2022-08-18T05:33:02.983Z,11.25
2022-08-18T05:33:43.189Z,11.25
2022-08-18T05:34:43.396Z,11.25
2022-08-18T05:35:43.305Z,11.25
2022-08-18T05:36:44.226Z,11.25
2022-08-18T05:37:47.041Z,11.25
2022-08-18T05:38:44.965Z,11.25
2022-08-18T05:39:46.609Z,5.63
2022-08-18T05:40:47.100Z,5.63
2022-08-18T05:41:47.002Z,5.63
2022-08-18T05:42:48.205Z,5.63
2022-08-18T05:44:03.225Z,5.63
2022-08-18T05:44:49.424Z,5.63
2022-08-18T05:45:50.350Z,5.63
2022-08-18T05:46:50.849Z,5.63
2022-08-18T05:47:51.274Z,5.63
2022-08-18T05:48:55.787Z,5.63
2022-08-18T05:49:51.998Z,5.63
2022-08-18T05:50:53.060Z,5.63
2022-08-18T05:51:53.265Z,5.63
2022-08-18T05:52:53.692Z,5.63
2022-08-18T05:53:54.954Z,5.63
2022-08-18T05:54:53.872Z,5.63
2022-08-18T05:55:58.952Z,5.63
2022-08-18T05:56:55.894Z,5.63
2022-08-18T05:57:56.175Z,5.63
2022-08-18T05:58:56.371Z,5.63
2022-08-18T05:59:59.472Z,5.63
2022-08-18T06:01:00.616Z,5.63
2022-08-18T06:01:58.538Z,5.63
2022-08-18T06:02:59.083Z,5.63
2022-08-18T06:04:03.402Z,5.63
2022-08-18T06:05:00.289Z,5.63
2022-08-18T06:06:00.525Z,5.63
2022-08-18T06:07:03.643Z,11.25
2022-08-18T06:08:02.193Z,11.25
2022-08-18T06:09:02.701Z,11.25
2022-08-18T06:10:03.043Z,11.25
2022-08-18T06:11:03.624Z,11.25
2022-08-18T06:12:03.555Z,11.25
2022-08-18T06:13:04.496Z,11.25
2022-08-18T06:14:10.984Z,16.88
2022-08-18T06:15:11.287Z,16.88
2022-08-18T06:16:05.804Z,16.88
2022-08-18T06:17:06.038Z,22.5
2022-08-18T06:18:06.084Z,22.5
2022-08-18T06:19:05.984Z,22.5
2022-08-18T06:20:07.210Z,22.5
2022-08-18T06:21:07.198Z,22.5
2022-08-18T06:22:08.124Z,22.5
2022-08-18T06:23:11.741Z,22.5
2022-08-18T06:24:09.459Z,22.5
2022-08-18T06:25:10.400Z,22.5
2022-08-18T06:26:11.329Z,22.5
2022-08-18T06:27:12.547Z,22.5
2022-08-18T06:28:12.690Z,22.5
2022-08-18T06:29:14.089Z,22.5
2022-08-18T06:30:13.137Z,22.5
2022-08-18T06:31:14.169Z,22.5
2022-08-18T06:32:14.667Z,22.5
2022-08-18T06:33:13.995Z,22.5
2022-08-18T06:34:15.937Z,28.13
2022-08-18T06:35:16.857Z,28.13
2022-08-18T06:36:24.572Z,28.13
2022-08-18T06:37:19.065Z,28.13
2022-08-18T06:38:19.561Z,28.13
2022-08-18T06:39:19.764Z,28.13
2022-08-18T06:40:21.026Z,28.13
2022-08-18T06:41:54.628Z,28.13
2022-08-18T06:42:21.831Z,28.13
2022-08-18T06:43:22.037Z,22.5
2022-08-18T06:44:21.945Z,22.5
2022-08-18T06:45:23.163Z,22.5
2022-08-18T06:46:23.334Z,22.5
2022-08-18T06:47:22.673Z,22.5
2022-08-18T06:48:32.338Z,22.5
2022-08-18T06:49:25.767Z,22.5
2022-08-18T06:50:26.097Z,22.5
2022-08-18T06:51:26.838Z,22.5
2022-08-18T06:52:27.060Z,22.5
2022-08-18T06:53:44.390Z,22.5
2022-08-18T06:54:27.609Z,22.5
2022-08-18T06:55:28.104Z,22.5
2022-08-18T06:56:42.453Z,22.5
2022-08-18T06:57:28.657Z,22.5
2022-08-18T06:58:29.009Z,22.5
2022-08-18T06:59:30.209Z,22.5
2022-08-18T07:00:32.511Z,22.5
2022-08-18T07:01:33.253Z,22.5
2022-08-18T07:02:35.396Z,22.5
2022-08-18T07:03:32.500Z,22.5
2022-08-18T07:04:33.719Z,22.5
2022-08-18T07:05:34.941Z,28.13
2022-08-18T07:06:34.871Z,28.13
2022-08-18T07:07:50.295Z,28.13
2022-08-18T07:08:35.869Z,33.75
2022-08-18T07:09:36.119Z,28.13
2022-08-18T07:10:36.468Z,28.13
2022-08-18T07:11:36.928Z,28.13
2022-08-18T07:12:43.827Z,33.75
2022-08-18T07:13:39.322Z,33.75
2022-08-18T07:14:39.452Z,33.75
2022-08-18T07:15:40.671Z,28.13
2022-08-18T07:17:11.274Z,22.5
2022-08-18T07:18:00.495Z,22.5
2022-08-18T07:18:42.413Z,22.5
2022-08-18T07:19:43.342Z,22.5
2022-08-18T07:20:43.847Z,22.5
2022-08-18T07:21:44.876Z,28.13
2022-08-18T07:23:08.018Z,28.13
2022-08-18T07:23:53.788Z,28.13
2022-08-18T07:24:45.304Z,22.5
2022-08-18T07:25:47.303Z,16.88
2022-08-18T07:26:47.523Z,16.88
2022-08-18T07:27:47.453Z,22.5
2022-08-18T07:28:48.548Z,22.5
2022-08-18T07:29:50.377Z,22.5
2022-08-18T07:31:27.262Z,22.5
2022-08-18T07:32:26.619Z,22.5
2022-08-18T07:33:15.541Z,22.5
2022-08-18T07:34:16.747Z,28.13
2022-08-18T07:35:16.675Z,22.5
2022-08-18T07:36:18.202Z,22.5
2022-08-18T07:37:18.117Z,22.5
2022-08-18T07:38:55.137Z,22.5
2022-08-18T07:39:19.632Z,22.5
2022-08-18T07:40:20.679Z,22.5
2022-08-18T07:41:20.921Z,22.5
2022-08-18T07:43:00.951Z,22.5
2022-08-18T07:43:22.573Z,22.5
2022-08-18T07:44:28.952Z,22.5
2022-08-18T07:45:29.017Z,22.5
2022-08-18T07:46:24.241Z,22.5
2022-08-18T07:47:24.522Z,22.5
2022-08-18T07:48:52.306Z,28.13
2022-08-18T07:49:36.107Z,28.13
2022-08-18T07:51:15.200Z,33.75
2022-08-18T07:51:42.357Z,33.75
2022-08-18T07:53:06.026Z,28.13
2022-08-18T07:54:25.569Z,33.75
2022-08-18T07:55:06.769Z,33.75
2022-08-18T07:56:05.587Z,33.75
2022-08-18T07:57:06.208Z,33.75
2022-08-18T07:58:07.645Z,33.75
2022-08-18T07:59:07.549Z,28.13
2022-08-18T08:00:10.389Z,28.13
2022-08-18T08:01:15.968Z,22.5
2022-08-18T08:02:10.417Z,22.5
2022-08-18T08:03:11.133Z,22.5
2022-08-18T08:04:11.632Z,22.5
2022-08-18T08:05:12.453Z,22.5
2022-08-18T08:06:12.370Z,22.5
2022-08-18T08:07:39.991Z,22.5
2022-08-18T08:08:16.876Z,22.5
2022-08-18T08:09:14.539Z,22.5
2022-08-18T08:10:15.454Z,22.5
2022-08-18T08:11:15.667Z,28.13
2022-08-18T08:12:15.971Z,28.13
2022-08-18T08:14:02.317Z,22.5
2022-08-18T08:14:21.730Z,22.5
2022-08-18T08:15:26.900Z,28.13
2022-08-18T08:16:21.453Z,28.13
2022-08-18T08:17:21.375Z,33.75
2022-08-18T08:18:22.596Z,39.38
2022-08-18T08:20:05.411Z,39.38
2022-08-18T08:20:24.612Z,39.38
2022-08-18T08:21:25.954Z,39.38
2022-08-18T08:22:25.609Z,33.75
2022-08-18T08:23:26.617Z,39.38
2022-08-18T08:24:31.574Z,45
2022-08-18T08:26:01.202Z,45
2022-08-18T08:26:29.124Z,45
2022-08-18T08:27:30.351Z,45
2022-08-18T08:28:30.251Z,45
2022-08-18T08:29:31.453Z,50.63
2022-08-18T08:30:31.819Z,50.63
2022-08-18T08:31:54.237Z,50.63
2022-08-18T08:32:32.295Z,50.63
2022-08-18T08:33:34.039Z,56.25
2022-08-18T08:34:33.941Z,61.88
2022-08-18T08:36:06.344Z,73.13
2022-08-18T08:36:35.567Z,73.13
2022-08-18T08:37:35.497Z,90
2022-08-18T08:38:59.076Z,90
2022-08-18T08:39:37.396Z,90
2022-08-18T08:40:38.577Z,95.63
2022-08-18T08:41:39.144Z,90
2022-08-18T08:42:51.354Z,90
2022-08-18T08:43:39.652Z,90
2022-08-18T08:44:57.989Z,84.38
2022-08-18T08:45:40.297Z,90
2022-08-18T08:46:41.523Z,95.63
2022-08-18T08:47:41.726Z,95.63
2022-08-18T08:48:41.927Z,95.63
2022-08-18T08:49:42.858Z,95.63
2022-08-18T08:50:42.483Z,101.25
2022-08-18T08:51:47.369Z,101.25
2022-08-18T08:52:44.335Z,112.5
2022-08-18T08:53:43.787Z,112.5
2022-08-18T08:54:45.437Z,106.88
2022-08-18T08:55:46.349Z,106.88
2022-08-18T08:56:47.876Z,112.5
2022-08-18T08:57:47.577Z,118.13
2022-08-18T08:58:50.369Z,112.5
2022-08-18T08:59:51.364Z,135
2022-08-18T09:00:51.572Z,146.25
2022-08-18T09:01:50.695Z,253.13
2022-08-18T09:03:04.978Z,157.5
2022-08-18T09:03:52.409Z,157.5
2022-08-18T09:05:20.947Z,129.38
2022-08-18T09:06:00.153Z,118.13
2022-08-18T09:06:54.077Z,118.13
2022-08-18T09:07:54.806Z,118.13
2022-08-18T09:08:56.059Z,118.13
2022-08-18T09:10:56.942Z,472.5
2022-08-18T09:11:57.596Z,1018.13
2022-08-18T09:12:59.306Z,776.25
2022-08-18T09:13:59.369Z,315
2022-08-18T09:15:00.595Z,444.38
2022-08-18T09:16:01.393Z,770.63
2022-08-18T09:17:04.609Z,241.88
2022-08-18T09:18:02.547Z,511.88
2022-08-18T09:19:03.758Z,511.88
2022-08-18T09:20:04.415Z,337.5
2022-08-18T09:21:06.206Z,208.13
2022-08-18T09:22:06.139Z,168.75
2022-08-18T09:23:07.620Z,185.63
2022-08-18T09:24:07.321Z,247.5
2022-08-18T09:25:09.099Z,388.13
2022-08-18T09:26:09.665Z,309.38
2022-08-18T09:27:09.317Z,191.25
2022-08-18T09:28:27.635Z,174.38
2022-08-18T09:29:10.770Z,286.88
2022-08-18T09:30:11.893Z,185.63
2022-08-18T09:31:14.238Z,112.5
2022-08-18T09:32:17.479Z,101.25
2022-08-18T09:33:24.236Z,101.25
2022-08-18T09:34:22.121Z,106.88
2022-08-18T09:35:17.169Z,157.5
2022-08-18T09:36:25.866Z,213.75
2022-08-18T09:39:23.949Z,84.38
2022-08-18T09:43:36.666Z,56.25
2022-08-18T09:46:29.268Z,61.88
2022-08-18T09:47:41.546Z,56.25
2022-08-18T09:48:48.904Z,56.25
2022-08-18T09:50:37.548Z,56.25
2022-08-18T09:50:56.749Z,45
2022-08-18T09:52:02.566Z,45
2022-08-18T09:52:57.892Z,45
2022-08-18T09:53:57.113Z,45
2022-08-18T09:55:00.660Z,45
2022-08-18T09:56:19.779Z,45
2022-08-18T09:57:12.043Z,45
2022-08-18T09:58:02.679Z,45
2022-08-18T09:59:09.869Z,45
2022-08-18T10:00:05.952Z,45
2022-08-18T10:01:11.614Z,45
2022-08-18T10:02:14.270Z,45
2022-08-18T10:03:08.634Z,50.63
2022-08-18T10:04:06.244Z,50.63
2022-08-18T10:05:11.393Z,50.63
2022-08-18T10:06:12.367Z,50.63
2022-08-18T10:07:11.781Z,50.63
2022-08-18T10:08:21.177Z,56.25
2022-08-18T10:09:36.433Z,56.25
2022-08-18T10:13:16.166Z,61.88
2022-08-18T10:14:18.203Z,61.88
2022-08-18T10:15:18.464Z,61.88
2022-08-18T10:16:31.243Z,61.88
2022-08-18T10:20:37.819Z,67.5
2022-08-18T10:21:31.060Z,78.75
2022-08-18T10:22:46.079Z,90
2022-08-18T10:23:25.746Z,151.88
2022-08-18T10:24:56.945Z,123.75
2022-08-18T10:25:39.004Z,129.38
2022-08-18T10:26:31.721Z,118.13
2022-08-18T10:27:30.293Z,118.13
2022-08-18T10:28:30.022Z,129.38
2022-08-18T10:29:33.046Z,157.5
2022-08-18T10:33:44.067Z,315
2022-08-18T10:34:36.672Z,348.75
2022-08-18T10:35:43.569Z,371.25
2022-08-18T10:42:50.253Z,382.5
2022-08-18T10:47:33.245Z,123.75
2022-08-18T10:55:06.093Z,247.5
2022-08-18T10:56:12.968Z,163.13
2022-08-18T10:57:09.612Z,135
2022-08-18T10:58:09.031Z,118.13
2022-08-18T10:59:13.617Z,106.88
2022-08-18T11:00:11.367Z,101.25
2022-08-18T11:01:12.251Z,106.88
2022-08-18T11:02:11.200Z,118.13
2022-08-18T11:04:27.485Z,253.13
2022-08-18T11:05:04.438Z,264.38
2022-08-18T11:05:53.091Z,281.25
2022-08-18T11:06:53.504Z,258.75
2022-08-18T11:08:15.917Z,213.75
2022-08-18T11:12:03.836Z,236.25
2022-08-18T11:12:53.915Z,219.38
2022-08-18T11:13:54.853Z,286.88
2022-08-18T11:14:56.216Z,258.75
2022-08-18T11:15:56.101Z,163.13
2022-08-18T11:16:59.810Z,264.38
2022-08-18T11:17:57.544Z,275.63
2022-08-18T11:19:03.562Z,247.5
2022-08-18T11:20:01.867Z,168.75
2022-08-18T11:21:00.463Z,118.13
2022-08-18T11:22:02.760Z,101.25
2022-08-18T11:25:03.173Z,123.75
2022-08-18T11:26:05.359Z,95.63
2022-08-18T11:27:20.331Z,95.63
2022-08-18T11:28:05.580Z,112.5
2022-08-18T11:29:07.815Z,95.63
2022-08-18T11:30:06.178Z,84.38
2022-08-18T11:31:06.513Z,84.38
2022-08-18T11:35:12.959Z,90
2022-08-18T11:36:13.188Z,101.25
2022-08-18T11:37:14.402Z,106.88
2022-08-18T11:38:21.001Z,129.38
2022-08-18T11:39:16.250Z,112.5
2022-08-18T11:40:52.261Z,90
2022-08-18T11:44:31.071Z,50.63
2022-08-18T11:45:36.294Z,56.25
2022-08-18T11:49:44.515Z,45
2022-08-18T11:50:37.422Z,39.38
2022-08-18T11:51:40.286Z,33.75
2022-08-18T11:58:56.558Z,50.63
2022-08-18T12:00:29.621Z,56.25
2022-08-18T12:00:55.097Z,56.25
2022-08-18T12:01:56.646Z,56.25
2022-08-18T12:02:49.008Z,56.25
2022-08-18T12:03:48.991Z,61.88
2022-08-18T12:04:50.349Z,73.13
2022-08-18T12:06:10.592Z,90
2022-08-18T12:06:55.957Z,123.75
2022-08-18T12:11:01.961Z,106.88
2022-08-18T12:12:19.225Z,123.75
2022-08-18T12:13:21.984Z,123.75
2022-08-18T12:17:19.454Z,123.75
2022-08-18T12:18:31.419Z,118.13
2022-08-18T12:19:27.658Z,101.25
2022-08-18T12:20:23.635Z,95.63
2022-08-18T12:21:23.524Z,101.25
2022-08-18T12:22:29.389Z,101.25
2022-08-18T12:23:24.242Z,112.5
2022-08-18T12:24:34.705Z,118.13
2022-08-18T12:25:36.307Z,95.63
2022-08-18T12:26:58.994Z,90
2022-08-18T12:30:35.162Z,84.38
2022-08-18T12:34:06.365Z,50.63
2022-08-18T12:35:09.679Z,45
2022-08-18T12:38:30.021Z,33.75
2022-08-18T12:39:25.919Z,33.75
2022-08-18T12:40:20.480Z,33.75
2022-08-18T12:44:32.798Z,39.38
2022-08-18T12:45:25.714Z,39.38
2022-08-18T12:46:30.805Z,39.38
2022-08-18T12:47:26.603Z,39.38
2022-08-18T12:48:29.819Z,45
2022-08-18T12:49:27.055Z,50.63
2022-08-18T12:50:42.797Z,50.63
2022-08-18T12:54:15.629Z,45
2022-08-18T12:55:27.092Z,39.38
2022-08-18T12:56:16.213Z,39.38
2022-08-18T12:57:51.830Z,39.38
2022-08-18T12:58:17.051Z,33.75
2022-08-18T12:59:16.548Z,33.75
2022-08-18T13:00:27.720Z,28.13
2022-08-18T13:01:23.229Z,28.13
2022-08-18T13:02:20.235Z,28.13
2022-08-18T13:03:19.788Z,22.5
2022-08-18T13:04:38.235Z,22.5
2022-08-18T13:05:32.554Z,28.13
2022-08-18T13:06:33.018Z,28.13
2022-08-18T13:07:35.782Z,28.13
2022-08-18T13:09:01.391Z,28.13
2022-08-18T13:10:05.549Z,22.5
2022-08-18T13:11:21.285Z,28.13
2022-08-18T13:11:45.494Z,28.13
2022-08-18T13:12:42.877Z,28.13
2022-08-18T13:13:47.161Z,28.13
2022-08-18T13:14:48.846Z,33.75
2022-08-18T13:15:55.718Z,33.75
2022-08-18T13:17:09.200Z,33.75
2022-08-18T13:18:00.405Z,33.75
2022-08-18T13:18:47.388Z,33.75
2022-08-18T13:19:50.423Z,33.75
2022-08-18T13:20:51.275Z,33.75
2022-08-18T13:22:02.463Z,33.75
2022-08-18T13:22:50.273Z,39.38
2022-08-18T13:23:51.401Z,39.38
2022-08-18T13:24:51.312Z,39.38
2022-08-18T13:26:06.494Z,39.38
2022-08-18T13:26:54.116Z,33.75
2022-08-18T13:29:17.449Z,33.75
2022-08-18T13:29:56.241Z,33.75
2022-08-18T13:30:53.543Z,33.75
2022-08-18T13:32:08.283Z,33.75
2022-08-18T13:34:19.247Z,33.75
2022-08-18T13:34:41.887Z,33.75
2022-08-18T13:35:59.672Z,33.75
2022-08-18T13:36:51.543Z,33.75
2022-08-18T13:37:50.386Z,28.13
2022-08-18T13:38:48.902Z,28.13
2022-08-18T13:39:58.390Z,33.75
2022-08-18T13:40:58.043Z,28.13
2022-08-18T13:41:54.986Z,28.13
2022-08-18T13:43:14.745Z,28.13
2022-08-18T13:43:53.526Z,33.75
2022-08-18T13:45:28.404Z,33.75
2022-08-18T13:45:58.478Z,33.75
2022-08-18T13:46:53.557Z,33.75
2022-08-18T13:47:58.379Z,33.75
2022-08-18T13:48:57.372Z,33.75
2022-08-18T13:50:15.178Z,28.13
2022-08-18T13:50:58.027Z,28.13
2022-08-18T13:52:03.246Z,28.13
2022-08-18T13:53:02.415Z,28.13
2022-08-18T13:54:45.806Z,22.5
2022-08-18T13:55:14.105Z,22.5
2022-08-18T13:56:11.173Z,22.5
2022-08-18T13:57:12.197Z,22.5
2022-08-18T13:58:22.919Z,22.5
2022-08-18T13:59:15.600Z,22.5
2022-08-18T14:00:18.124Z,16.88
2022-08-18T14:02:04.128Z,16.88
2022-08-18T14:02:26.789Z,22.5
2022-08-18T14:03:47.956Z,16.88
2022-08-18T14:04:33.512Z,16.88
2022-08-18T14:05:37.033Z,22.5
2022-08-18T14:06:29.005Z,22.5
2022-08-18T14:07:40.780Z,22.5
2022-08-18T14:08:30.866Z,22.5
2022-08-18T14:09:49.149Z,22.5
2022-08-18T14:10:30.080Z,22.5
2022-08-18T14:11:32.755Z,28.13
2022-08-18T14:12:45.580Z,28.13
2022-08-18T14:13:55.198Z,28.13
2022-08-18T14:14:33.281Z,28.13
2022-08-18T14:15:32.511Z,28.13
2022-08-18T14:16:38.109Z,22.5
2022-08-18T14:17:33.587Z,22.5
2022-08-18T14:18:45.709Z,22.5
2022-08-18T14:19:35.510Z,16.88
2022-08-18T14:20:39.957Z,16.88
2022-08-18T14:21:44.250Z,16.88
2022-08-18T14:22:36.682Z,22.5
2022-08-18T14:23:56.856Z,22.5
2022-08-18T14:24:53.861Z,22.5
2022-08-18T14:25:39.720Z,22.5
2022-08-18T14:26:40.932Z,22.5
2022-08-18T14:28:04.023Z,22.5
2022-08-18T14:28:43.901Z,22.5
2022-08-18T14:30:05.912Z,16.88
2022-08-18T14:30:40.437Z,16.88
2022-08-18T14:31:50.482Z,11.25
2022-08-18T14:33:03.609Z,11.25
2022-08-18T14:34:15.906Z,5.63
2022-08-18T14:34:58.577Z,5.63
2022-08-18T14:36:30.266Z,5.63
2022-08-18T14:36:49.189Z,5.63
2022-08-18T14:37:50.478Z,5.63
2022-08-18T14:38:56.945Z,5.63
2022-08-18T14:39:59.312Z,5.63
2022-08-18T14:40:53.734Z,5.63
2022-08-18T14:42:08.657Z,5.63
2022-08-18T14:43:07.972Z,5.63
2022-08-18T14:44:47.033Z,5.63
2022-08-18T14:45:42.088Z,5.63
2022-08-18T14:46:09.556Z,5.63
2022-08-18T14:47:10.536Z,11.25
2022-08-18T14:48:12.785Z,11.25
2022-08-18T14:49:09.704Z,11.25
2022-08-18T14:50:08.642Z,11.25
2022-08-18T14:51:09.552Z,11.25
2022-08-18T14:52:10.576Z,11.25
2022-08-18T14:53:10.593Z,16.88
2022-08-18T14:54:17.865Z,16.88
2022-08-18T14:55:12.336Z,16.88
2022-08-18T14:56:10.531Z,16.88
2022-08-18T14:57:12.539Z,16.88
2022-08-18T14:58:19.482Z,11.25
2022-08-18T14:59:11.798Z,11.25
2022-08-18T15:00:20.931Z,11.25
2022-08-18T15:01:23.247Z,11.25
2022-08-18T15:02:18.346Z,5.63
2022-08-18T15:03:16.599Z,5.63
2022-08-18T15:04:30.497Z,5.63
2022-08-18T15:05:36.124Z,5.63
2022-08-18T15:06:33.934Z,5.63
2022-08-18T15:07:29.332Z,5.63
2022-08-18T15:09:24.101Z,5.63
2022-08-18T15:10:39.055Z,5.63
2022-08-18T15:11:23.256Z,5.63
2022-08-18T15:12:25.773Z,11.25
2022-08-18T15:13:25.032Z,11.25
2022-08-18T15:14:33.372Z,16.88
2022-08-18T15:15:42.048Z,16.88
2022-08-18T15:16:32.512Z,16.88
2022-08-18T15:17:37.893Z,22.5
2022-08-18T15:18:34.047Z,22.5
2022-08-18T15:20:15.896Z,22.5
2022-08-18T15:20:41.654Z,22.5
2022-08-18T15:21:54.863Z,16.88
2022-08-18T15:22:37.404Z,16.88
2022-08-18T15:23:48.325Z,16.88
2022-08-18T15:24:37.621Z,11.25
2022-08-18T15:25:40.485Z,11.25
2022-08-18T15:26:41.674Z,11.25
2022-08-18T15:28:03.669Z,11.25
2022-08-18T15:28:56.344Z,11.25
2022-08-18T15:29:56.363Z,11.25
2022-08-18T15:32:23.020Z,11.25
2022-08-18T15:32:55.598Z,11.25
2022-08-18T15:34:03.072Z,11.25
2022-08-18T15:35:17.274Z,11.25
2022-08-18T15:36:01.036Z,11.25
2022-08-18T15:36:57.246Z,11.25
2022-08-18T15:38:05.008Z,11.25
2022-08-18T15:38:59.920Z,11.25
2022-08-18T15:41:11.379Z,11.25
2022-08-18T15:42:00.980Z,11.25
2022-08-18T15:44:06.811Z,11.25
2022-08-18T15:45:17.252Z,11.25
2022-08-18T15:46:19.185Z,11.25